Time;durP1;ratioP1;P1;durP2;ratioP2;P2;SDS_P1;SDS_P2;PMS_P1;PMS_P2;Temp;Humidity;BMP_temperature;BMP_pressure;BME280_temperature;BME280_humidity;BME280_pressure;Samples;Min_cycle;Max_cycle;Signal;HPM_P1;HPM_P2
2022/12/17 13:08:20;;;;;;;29.90;14.63;;;;;;;-145.69;100.00;52757.31;5111898;28;20200;-81
2022/12/17 13:10:48;;;;;;;40.67;20.38;;;;;;;-145.69;100.00;52781.06;5097227;28;20535;-83
2022/12/17 13:13:35;;;;;;;37.57;16.70;;;;;;;-145.69;100.00;52737.50;5084848;28;20289;-83
2022/12/17 13:16:17;;;;;;;31.60;15.50;;;;;;;-145.69;100.00;52773.16;5079671;28;20205;-84
2022/12/17 13:18:45;;;;;;;38.07;16.77;;;;;;;-145.69;100.00;52765.22;5085915;28;20289;-82
2022/12/17 13:21:24;;;;;;;32.63;15.17;;;;;;;-145.69;100.00;52729.56;5086750;28;20285;-82
2022/12/17 13:23:52;;;;;;;35.17;15.53;;;;;;;-145.69;100.00;52737.50;5085428;28;20204;-81
2022/12/17 13:26:23;;;;;;;34.30;17.73;;;;;;;-145.69;100.00;52749.38;5077356;28;20206;-81
2022/12/17 13:29:02;;;;;;;39.83;16.57;;;;;;;-145.69;100.00;52761.25;5083270;28;20194;-82
2022/12/17 13:31:33;;;;;;;40.47;17.20;;;;;;;-145.69;100.00;52745.41;5085106;28;20218;-81
2022/12/17 13:34:09;;;;;;;32.63;15.53;;;;;;;-145.69;100.00;52775.13;5093247;28;20198;-82
2022/12/17 13:36:47;;;;;;;37.27;16.27;;;;;;;-145.69;100.00;52785.03;5093416;28;20700;-82
2022/12/17 13:39:26;;;;;;;36.97;15.83;;;;;;;-145.69;100.00;52749.38;5087718;28;20197;-82
2022/12/17 13:41:57;;;;;;;34.63;16.23;;;;;;;-145.69;100.00;52789.00;5086846;28;20221;-81
2022/12/17 13:44:25;;;;;;;49.57;17.33;;;;;;;-145.69;100.00;52781.06;5092814;28;20195;-80
2022/12/17 13:46:53;;;;;;;33.43;16.33;;;;;;;-145.69;100.00;52757.31;5092731;28;20198;-79
2022/12/17 13:49:24;;;;;;;46.63;17.53;;;;;;;-145.69;100.00;52747.41;5093070;28;20228;-80
2022/12/17 13:52:01;;;;;;;36.40;17.73;;;;;;;-145.69;100.00;52733.53;5092977;28;20198;-81
2022/12/17 13:54:28;;;;;;;38.60;18.37;;;;;;;-145.69;100.00;52725.63;5088582;28;20202;-81
2022/12/17 13:56:54;;;;;;;42.43;19.03;;;;;;;-145.69;100.00;52757.31;5072568;28;20672;-80
2022/12/17 13:59:24;;;;;;;38.97;17.67;;;;;;;-145.69;100.00;52785.03;5072667;28;20669;-80
2022/12/17 14:01:52;;;;;;;41.13;17.87;;;;;;;-145.69;100.00;52753.34;5072893;28;20203;-81
2022/12/17 14:04:23;;;;;;;45.83;21.83;;;;;;;-145.69;100.00;52765.22;5076535;28;20440;-81
2022/12/17 14:06:54;;;;;;;34.43;17.93;;;;;;;-145.69;100.00;52769.19;5092986;28;20201;-81
2022/12/17 14:09:24;;;;;;;37.17;17.83;;;;;;;-145.69;100.00;52773.16;5092655;28;20226;-80
2022/12/17 14:14:37;;;;;;;40.53;17.17;;;;;;;-145.69;100.00;52785.03;5092744;28;20240;-83
2022/12/17 14:17:04;;;;;;;35.73;16.57;;;;;;;-145.69;100.00;52761.25;5092719;28;20198;-83
2022/12/17 14:19:34;;;;;;;36.20;15.50;;;;;;;-145.69;100.00;52773.16;5092667;28;20198;-83
2022/12/17 14:22:01;;;;;;;39.87;18.60;;;;;;;-145.69;100.00;52749.38;5092734;28;20201;-83
2022/12/17 14:24:28;;;;;;;38.23;18.03;;;;;;;-145.69;100.00;52755.31;5092552;28;20205;-83
2022/12/17 14:26:57;;;;;;;37.43;15.67;;;;;;;-145.69;100.00;52753.34;5092982;28;20225;-82
2022/12/17 14:29:25;;;;;;;46.30;18.10;;;;;;;-145.69;100.00;52761.25;5092834;28;20218;-83
2022/12/17 14:31:53;;;;;;;44.37;19.03;;;;;;;-145.69;100.00;52775.13;5092890;28;20199;-87
2022/12/17 14:34:19;;;;;;;47.20;23.00;;;;;;;-145.69;100.00;52735.50;5094948;28;20226;-87
2022/12/17 14:36:54;;;;;;;45.73;20.13;;;;;;;-145.69;100.00;52753.34;5094447;28;20222;-83
2022/12/17 14:39:24;;;;;;;40.97;17.87;;;;;;;-145.69;100.00;52767.19;5091664;28;20277;-83
2022/12/17 14:44:42;;;;;;;47.90;19.57;;;;;;;-145.69;100.00;52812.75;5087817;28;20285;-79
2022/12/17 14:47:17;;;;;;;45.90;17.33;;;;;;;-145.69;100.00;52777.09;5092235;28;20592;-86
2022/12/17 14:49:54;;;;;;;41.03;17.67;;;;;;;-145.69;100.00;52781.06;5092703;28;20687;-83
2022/12/17 14:52:27;;;;;;;38.97;17.33;;;;;;;-145.69;100.00;52773.16;5095481;28;20229;-84
2022/12/17 14:54:54;;;;;;;39.47;16.40;;;;;;;-145.69;100.00;52733.53;5096064;28;20656;-83
2022/12/17 14:57:22;;;;;;;42.17;17.07;;;;;;;-145.69;100.00;52763.25;5096199;28;20221;-81
2022/12/17 14:59:51;;;;;;;43.40;16.90;;;;;;;-145.69;100.00;52767.19;5096062;28;20190;-80
2022/12/17 15:02:22;;;;;;;36.70;16.40;;;;;;;-145.69;100.00;52769.19;5096298;28;20190;-83
2022/12/17 15:04:50;;;;;;;43.83;18.13;;;;;;;-145.69;100.00;52789.00;5095911;28;20194;-81
2022/12/17 15:07:23;;;;;;;41.33;17.63;;;;;;;-145.69;100.00;52773.16;5096107;28;20202;-84
2022/12/17 15:09:51;;;;;;;39.93;16.97;;;;;;;-145.69;100.00;52763.25;5095924;28;20230;-80
2022/12/17 15:12:18;;;;;;;37.70;15.87;;;;;;;-145.69;100.00;52794.94;5095933;28;20251;-80
2022/12/17 15:14:45;;;;;;;37.80;16.30;;;;;;;-145.69;100.00;52759.28;5095454;28;20198;-80
2022/12/17 15:17:12;;;;;;;39.90;16.17;;;;;;;-145.69;100.00;52792.94;5095759;28;20190;-80
2022/12/17 15:19:38;;;;;;;46.93;17.00;;;;;;;-145.69;100.00;52785.03;5095399;28;20196;-80
2022/12/17 15:22:05;;;;;;;38.33;16.70;;;;;;;-145.69;100.00;52753.34;5095440;28;20201;-80
2022/12/17 15:24:31;;;;;;;38.20;16.27;;;;;;;-145.69;100.00;52777.09;5095097;28;20205;-80
2022/12/17 15:26:59;;;;;;;35.70;14.93;;;;;;;-145.69;100.00;52757.31;5095223;28;20226;-79
2022/12/17 15:29:26;;;;;;;36.90;16.30;;;;;;;-145.69;100.00;52783.06;5095499;28;20538;-81
2022/12/17 15:31:55;;;;;;;37.77;15.30;;;;;;;-145.69;100.00;52789.00;5095576;28;20198;-80
2022/12/17 15:34:22;;;;;;;34.63;15.83;;;;;;;-145.69;100.00;52812.75;5095126;28;20198;-81
2022/12/17 15:36:48;;;;;;;39.23;17.40;;;;;;;-145.69;100.00;52802.84;5094740;28;20222;-80
2022/12/17 15:39:15;;;;;;;39.60;16.07;;;;;;;-145.69;100.00;52792.94;5095168;28;20201;-80
2022/12/17 15:44:27;;;;;;;38.73;17.00;;;;;;;-145.69;100.00;52767.19;5095205;28;20197;-82
2022/12/17 15:46:58;;;;;;;44.63;17.57;;;;;;;-145.69;100.00;52824.63;5095347;28;20285;-81
2022/12/17 15:49:24;;;;;;;51.83;18.37;;;;;;;-145.69;100.00;52812.75;5094916;28;20194;-81
2022/12/17 15:51:51;;;;;;;39.07;16.20;;;;;;;-145.69;100.00;52769.19;5090710;28;20657;-82
2022/12/17 15:54:17;;;;;;;40.47;16.27;;;;;;;-145.69;100.00;52824.63;5094967;28;20204;-81
2022/12/17 15:56:51;;;;;;;45.20;16.17;;;;;;;-145.69;100.00;52785.03;5095064;28;20556;-81
2022/12/17 15:59:21;;;;;;;41.60;16.70;;;;;;;-145.69;100.00;52792.94;5094926;28;20194;-81
2022/12/17 16:01:49;;;;;;;34.23;15.03;;;;;;;-145.69;100.00;52789.00;5094515;28;20656;-79
2022/12/17 16:04:15;;;;;;;41.33;17.40;;;;;;;-145.69;100.00;52767.19;5094112;28;20199;-80
2022/12/17 16:06:42;;;;;;;36.60;15.33;;;;;;;-145.69;100.00;52810.78;5094609;28;20190;-80
2022/12/17 16:09:08;;;;;;;33.87;14.93;;;;;;;-145.69;100.00;52749.38;5094633;28;20198;-80
2022/12/17 16:11:35;;;;;;;38.33;17.33;;;;;;;-145.69;100.00;52789.00;5094672;28;20333;-80
2022/12/17 16:14:02;;;;;;;36.33;14.37;;;;;;;-145.69;100.00;52789.00;5095054;28;20225;-80
2022/12/17 16:16:29;;;;;;;28.23;12.30;;;;;;;-145.69;100.00;52789.00;5095505;28;20217;-84
2022/12/17 16:18:57;;;;;;;25.90;10.93;;;;;;;-145.69;100.00;52800.88;5099172;28;20202;-86
2022/12/17 16:21:23;;;;;;;29.47;11.57;;;;;;;-145.69;100.00;52802.84;5097064;28;20206;-80
2022/12/17 16:23:50;;;;;;;24.73;10.23;;;;;;;-145.69;100.00;52792.94;5098167;28;20209;-86
2022/12/17 16:26:19;;;;;;;22.00;9.33;;;;;;;-145.69;100.00;52781.06;5095170;28;20197;-85
2022/12/17 16:28:46;;;;;;;21.77;8.93;;;;;;;-145.69;100.00;52790.97;5097678;28;20751;-86
2022/12/17 16:31:14;;;;;;;31.17;13.10;;;;;;;-145.69;100.00;52798.91;5095785;28;20226;-82
2022/12/17 16:33:43;;;;;;;25.80;11.03;;;;;;;-145.69;100.00;52777.09;5094663;28;20202;-82
2022/12/17 16:36:14;;;;;;;25.77;11.80;;;;;;;-145.69;100.00;52790.97;5094447;28;20332;-83
2022/12/17 16:38:44;;;;;;;20.93;9.80;;;;;;;-145.69;100.00;52804.84;5095259;28;20201;-84
2022/12/17 16:41:10;;;;;;;23.10;9.93;;;;;;;-145.69;100.00;52802.84;5095271;28;20707;-84
2022/12/17 16:43:37;;;;;;;21.20;8.07;;;;;;;-145.69;100.00;52830.59;5094852;28;20225;-84
2022/12/17 16:46:04;;;;;;;21.37;7.77;;;;;;;-145.69;100.00;52828.59;5095070;28;20213;-84
2022/12/17 16:48:36;;;;;;;20.90;8.10;;;;;;;-145.69;100.00;52808.78;5095252;28;20202;-84
2022/12/17 16:51:16;;;;;;;25.90;9.50;;;;;;;-145.69;100.00;52773.16;5095324;28;20613;-84
2022/12/17 16:53:43;;;;;;;24.67;10.30;;;;;;;-145.69;100.00;52824.63;5094763;28;20201;-84
2022/12/17 16:56:15;;;;;;;18.37;8.57;;;;;;;-145.69;100.00;52812.75;5094475;28;20205;-83
2022/12/17 16:58:42;;;;;;;23.80;7.93;;;;;;;-145.69;100.00;52804.84;5094622;28;20207;-83
2022/12/17 17:01:09;;;;;;;20.57;8.00;;;;;;;-145.69;100.00;52775.13;5092368;28;20235;-83
2022/12/17 17:03:39;;;;;;;24.20;7.90;;;;;;;-145.69;100.00;52781.06;5094287;28;20206;-84
2022/12/17 17:06:06;;;;;;;16.83;7.20;;;;;;;-145.69;100.00;52810.78;5094440;28;20213;-85
2022/12/17 17:08:35;;;;;;;19.50;8.67;;;;;;;-145.69;100.00;52787.00;5094377;28;20713;-86
2022/12/17 17:11:09;;;;;;;28.87;12.03;;;;;;;-145.69;100.00;52798.91;5094803;28;20256;-83
2022/12/17 17:13:37;;;;;;;26.50;10.93;;;;;;;-145.69;100.00;52838.50;5094666;28;20584;-84
2022/12/17 17:16:04;;;;;;;22.23;9.47;;;;;;;-145.69;100.00;52757.31;5092837;28;20198;-82
2022/12/17 17:18:31;;;;;;;24.23;10.20;;;;;;;-145.69;100.00;52781.06;5094005;28;20198;-84
2022/12/17 17:21:13;;;;;;;25.60;10.67;;;;;;;-145.69;100.00;52775.13;5094016;28;20661;-80
2022/12/17 17:23:41;;;;;;;24.40;9.17;;;;;;;-145.69;100.00;52820.69;5093466;28;20202;-82
2022/12/17 17:26:09;;;;;;;25.77;10.07;;;;;;;-145.69;100.00;52800.88;5093352;28;20206;-80
2022/12/17 17:28:35;;;;;;;21.63;8.90;;;;;;;-145.69;100.00;52792.94;5093231;28;20253;-82
2022/12/17 17:31:03;;;;;;;25.97;10.67;;;;;;;-145.69;100.00;52796.91;5093424;28;20579;-82
2022/12/17 17:33:30;;;;;;;22.93;8.97;;;;;;;-145.69;100.00;52783.06;5093575;28;20198;-82
2022/12/17 17:36:03;;;;;;;20.80;8.97;;;;;;;-145.69;100.00;52787.00;5093385;28;20230;-80
2022/12/17 17:38:30;;;;;;;36.03;13.47;;;;;;;-145.69;100.00;52779.09;5093705;28;20202;-84
2022/12/17 17:40:58;;;;;;;41.23;14.87;;;;;;;-145.69;100.00;52798.91;5093333;28;20201;-81
2022/12/17 17:43:25;;;;;;;26.40;9.80;;;;;;;-145.69;100.00;52792.94;5093833;28;20197;-78
2022/12/17 17:45:52;;;;;;;22.80;9.07;;;;;;;-145.69;100.00;52816.72;5093238;28;20204;-80
2022/12/17 17:48:18;;;;;;;30.87;10.67;;;;;;;-145.69;100.00;52777.09;5093298;28;20202;-80
2022/12/17 17:50:56;;;;;;;22.83;9.30;;;;;;;-145.69;100.00;52812.75;5093289;28;20222;-80
2022/12/17 17:53:22;;;;;;;22.70;9.50;;;;;;;-145.69;100.00;52785.03;5093362;28;20204;-80
2022/12/17 17:55:49;;;;;;;21.57;8.03;;;;;;;-145.69;100.00;52836.53;5093071;28;20645;-81
2022/12/17 17:58:17;;;;;;;17.47;7.30;;;;;;;-145.69;100.00;52822.66;5092611;28;20194;-80
2022/12/17 18:00:43;;;;;;;21.13;7.30;;;;;;;-145.69;100.00;52814.75;5076736;28;20209;-81
2022/12/17 18:03:10;;;;;;;28.93;9.13;;;;;;;-145.69;100.00;52796.91;5090392;28;20522;-80
2022/12/17 18:05:37;;;;;;;18.87;8.57;;;;;;;-145.69;100.00;52804.84;5093456;28;20194;-81
2022/12/17 18:08:04;;;;;;;24.47;9.30;;;;;;;-145.69;100.00;52804.84;5093555;28;20700;-80
2022/12/17 18:10:31;;;;;;;24.57;9.17;;;;;;;-145.69;100.00;52765.22;5092042;28;20222;-81
2022/12/17 18:15:43;;;;;;;21.23;8.87;;;;;;;-145.69;100.00;52846.44;5092885;28;20671;-81
2022/12/17 18:18:10;;;;;;;33.70;11.87;;;;;;;-145.69;100.00;52789.00;5092667;28;20202;-83
2022/12/17 18:20:36;;;;;;;28.27;10.17;;;;;;;-145.69;100.00;52812.75;5092415;28;20224;-81
2022/12/17 18:23:03;;;;;;;25.00;10.67;;;;;;;-145.69;100.00;52802.84;5092414;28;20201;-83
2022/12/17 18:25:30;;;;;;;33.13;12.53;;;;;;;-145.69;100.00;52783.06;5093120;28;20202;-82
2022/12/17 18:27:56;;;;;;;30.60;10.73;;;;;;;-145.69;100.00;52804.84;5096909;28;20198;-78
2022/12/17 18:30:23;;;;;;;29.07;10.87;;;;;;;-145.69;100.00;52792.94;5096765;28;20198;-80
2022/12/17 18:32:51;;;;;;;24.23;9.43;;;;;;;-145.69;100.00;52796.91;5096973;28;20198;-81
2022/12/17 18:35:18;;;;;;;22.47;9.67;;;;;;;-145.69;100.00;52785.03;5096533;28;20668;-81
2022/12/17 18:37:44;;;;;;;23.43;9.70;;;;;;;-145.69;100.00;52769.19;5096763;28;20306;-78
2022/12/17 18:40:11;;;;;;;19.73;8.90;;;;;;;-145.69;100.00;52785.03;5096731;28;20542;-81
2022/12/17 18:45:22;;;;;;;24.27;8.87;;;;;;;-145.69;100.00;52808.78;5096758;28;20197;-81
2022/12/17 18:47:51;;;;;;;22.93;8.50;;;;;;;-145.69;100.00;52804.84;5096815;28;20209;-81
2022/12/17 18:50:17;;;;;;;24.57;9.00;;;;;;;-145.69;100.00;52796.91;5096348;28;20682;-80
2022/12/17 18:52:44;;;;;;;23.40;8.43;;;;;;;-145.69;100.00;52828.59;5096432;28;20198;-80
2022/12/17 18:55:11;;;;;;;23.13;8.47;;;;;;;-145.69;100.00;52830.59;5096594;28;20194;-79
2022/12/17 18:57:37;;;;;;;22.60;8.23;;;;;;;-145.69;100.00;52806.81;5096672;28;20603;-79
2022/12/17 19:00:06;;;;;;;25.67;10.97;;;;;;;-145.69;100.00;52765.22;5096295;28;20291;-79
2022/12/17 19:02:32;;;;;;;28.13;10.20;;;;;;;-145.69;100.00;52822.66;5096208;28;20289;-78
2022/12/17 19:05:00;;;;;;;25.60;9.90;;;;;;;-145.69;100.00;52796.91;5096044;28;20200;-81
2022/12/17 19:07:27;;;;;;;27.20;11.23;;;;;;;-145.69;100.00;52840.47;5096108;28;20204;-78
2022/12/17 19:09:53;;;;;;;29.60;13.40;;;;;;;-145.69;100.00;52806.81;5095082;28;20428;-79
2022/12/17 19:12:20;;;;;;;24.63;10.13;;;;;;;-145.69;100.00;52818.69;5096049;28;20835;-80
2022/12/17 19:14:46;;;;;;;23.43;9.20;;;;;;;-145.69;100.00;52787.00;5095363;28;20686;-79
2022/12/17 19:17:13;;;;;;;25.27;9.83;;;;;;;-145.69;100.00;52822.66;5096088;28;20208;-80
2022/12/17 19:19:40;;;;;;;26.00;8.83;;;;;;;-145.69;100.00;52773.16;5095753;28;20198;-81
2022/12/17 19:22:07;;;;;;;26.83;9.33;;;;;;;-145.69;100.00;52802.84;5095991;28;20234;-80
2022/12/17 19:24:34;;;;;;;20.30;8.80;;;;;;;-145.69;100.00;52838.50;5095555;28;20198;-80
2022/12/17 19:27:00;;;;;;;23.10;8.87;;;;;;;-145.69;100.00;52783.06;5095653;28;20200;-80
2022/12/17 19:29:27;;;;;;;23.07;9.17;;;;;;;-145.69;100.00;52804.84;5095559;28;20652;-80
2022/12/17 19:31:53;;;;;;;31.37;11.03;;;;;;;-145.69;100.00;52830.59;5095939;28;20230;-80
2022/12/17 19:34:20;;;;;;;33.23;10.27;;;;;;;-145.69;100.00;52824.63;5095386;28;20194;-79
2022/12/17 19:36:47;;;;;;;26.67;9.67;;;;;;;-145.69;100.00;52789.00;5094898;28;20229;-80
2022/12/17 19:39:17;;;;;;;21.10;8.33;;;;;;;-145.69;100.00;52812.75;5094293;28;20607;-80
2022/12/17 19:41:43;;;;;;;20.30;7.73;;;;;;;-145.69;100.00;52779.09;5095722;28;20198;-80
2022/12/17 19:44:13;;;;;;;21.13;8.10;;;;;;;-145.69;100.00;52785.03;5095250;27;20203;-80
2022/12/17 19:46:39;;;;;;;24.23;9.23;;;;;;;-145.69;100.00;52804.84;5091654;28;20667;-80
2022/12/17 19:49:06;;;;;;;21.60;9.17;;;;;;;-145.69;100.00;52759.28;5095480;28;20198;-80
2022/12/17 19:51:33;;;;;;;21.63;8.60;;;;;;;-145.69;100.00;52800.88;5096572;28;20573;-80
2022/12/17 19:54:00;;;;;;;18.37;7.73;;;;;;;-145.69;100.00;52806.81;5095301;28;20205;-82
2022/12/17 19:56:30;;;;;;;24.03;9.67;;;;;;;-145.69;100.00;52785.03;5095422;28;20198;-85
2022/12/17 19:59:00;;;;;;;23.93;8.20;;;;;;;-145.69;100.00;52796.91;5096417;28;20198;-85
2022/12/17 20:01:29;;;;;;;18.13;7.50;;;;;;;-145.69;100.00;52814.75;5095926;28;20248;-83
2022/12/17 20:03:56;;;;;;;23.77;8.03;;;;;;;-145.69;100.00;52777.09;5095665;28;20194;-81
2022/12/17 20:06:24;;;;;;;22.20;8.33;;;;;;;-145.69;100.00;52824.63;5091875;28;20196;-84
2022/12/17 20:08:51;;;;;;;18.53;7.90;;;;;;;-145.69;100.00;52820.69;5076256;28;20213;-83
2022/12/17 20:11:34;;;;;;;24.43;8.57;;;;;;;-145.69;100.00;52808.78;5076424;28;20258;-84
2022/12/17 20:14:05;;;;;;;19.47;8.20;;;;;;;-145.69;100.00;52816.72;5075716;28;20191;-83
2022/12/17 20:16:34;;;;;;;20.63;8.47;;;;;;;-145.69;100.00;52808.78;5084210;28;20198;-81
2022/12/17 20:19:02;;;;;;;25.43;8.73;;;;;;;-145.69;100.00;52789.00;5094680;28;20289;-81
2022/12/17 20:21:29;;;;;;;26.20;8.07;;;;;;;-145.69;100.00;52816.72;5094580;28;20206;-80
2022/12/17 20:23:56;;;;;;;23.27;9.30;;;;;;;-145.69;100.00;52808.78;5094428;28;20200;-81
2022/12/17 20:26:24;;;;;;;44.53;15.17;;;;;;;-145.69;100.00;52830.59;5094289;28;20205;-80
2022/12/17 20:28:51;;;;;;;21.73;8.77;;;;;;;-145.69;100.00;52785.03;5094954;28;20198;-80
2022/12/17 20:31:19;;;;;;;52.27;17.87;;;;;;;-145.69;100.00;52822.66;5094404;28;20696;-79
2022/12/17 20:33:45;;;;;;;42.57;14.20;;;;;;;-145.69;100.00;52800.88;5094222;28;20202;-80
2022/12/17 20:36:14;;;;;;;41.97;13.63;;;;;;;-145.69;100.00;52798.91;5094156;28;20228;-80
2022/12/17 20:38:42;;;;;;;30.23;10.73;;;;;;;-145.69;100.00;52816.72;5094040;28;20263;-81
2022/12/17 20:41:10;;;;;;;22.87;9.53;;;;;;;-145.69;100.00;52808.78;5093635;28;20221;-81
2022/12/17 20:43:38;;;;;;;22.07;9.60;;;;;;;-145.69;100.00;52800.88;5094431;28;20214;-80
2022/12/17 20:46:05;;;;;;;24.43;8.67;;;;;;;-145.69;100.00;52775.13;5094030;28;20300;-80
2022/12/17 20:48:33;;;;;;;49.13;18.03;;;;;;;-145.69;100.00;52802.84;5093607;28;20197;-81
2022/12/17 20:51:04;;;;;;;31.67;10.33;;;;;;;-145.69;100.00;52804.84;5094165;28;20300;-79
2022/12/17 20:53:31;;;;;;;34.83;13.43;;;;;;;-145.69;100.00;52808.78;5092807;28;20428;-83
2022/12/17 20:56:01;;;;;;;23.20;9.63;;;;;;;-145.69;100.00;52800.88;5093083;28;20191;-79
2022/12/17 20:58:28;;;;;;;28.00;10.03;;;;;;;-145.69;100.00;52790.97;5090421;28;20197;-80
2022/12/17 21:01:02;;;;;;;22.30;8.40;;;;;;;-145.69;100.00;52796.91;5093980;28;20208;-80
2022/12/17 21:03:31;;;;;;;23.80;9.23;;;;;;;-145.69;100.00;52818.69;5093246;28;20194;-81
2022/12/17 21:06:04;;;;;;;25.47;9.20;;;;;;;-145.69;100.00;52824.63;5092959;28;20198;-80
2022/12/17 21:08:30;;;;;;;24.00;8.50;;;;;;;-145.69;100.00;52796.91;5092334;28;20237;-80
2022/12/17 21:11:00;;;;;;;31.83;9.87;;;;;;;-145.69;100.00;52808.78;5093819;28;20201;-80
2022/12/17 21:13:29;;;;;;;22.00;7.83;;;;;;;-145.69;100.00;52794.94;5094026;28;20198;-83
2022/12/17 21:15:56;;;;;;;26.70;8.33;;;;;;;-145.69;100.00;52789.00;5092120;28;20692;-84
2022/12/17 21:18:22;;;;;;;27.10;9.13;;;;;;;-145.69;100.00;52860.28;5092752;28;20264;-84
2022/12/17 21:20:55;;;;;;;19.17;8.50;;;;;;;-145.69;100.00;52806.81;5093996;28;20212;-83
2022/12/17 21:23:23;;;;;;;31.67;9.53;;;;;;;-145.69;100.00;52804.84;5095040;28;20292;-82
2022/12/17 21:25:57;;;;;;;21.60;9.03;;;;;;;-145.69;100.00;52796.91;5094317;28;20252;-82
2022/12/17 21:28:23;;;;;;;26.40;10.37;;;;;;;-145.69;100.00;52792.94;5094179;28;20284;-82
2022/12/17 21:30:50;;;;;;;28.43;9.50;;;;;;;-145.69;100.00;52787.00;5093575;28;20202;-82
2022/12/17 21:33:16;;;;;;;32.00;10.47;;;;;;;-145.69;100.00;52792.94;5093400;28;20317;-82
2022/12/17 21:35:43;;;;;;;29.87;11.33;;;;;;;-145.69;100.00;52781.06;5094460;28;20252;-82
2022/12/17 21:38:09;;;;;;;25.10;9.43;;;;;;;-145.69;100.00;52806.81;5092102;28;20202;-80
2022/12/17 21:40:38;;;;;;;29.87;9.73;;;;;;;-145.69;100.00;52783.06;5085213;28;20194;-80
2022/12/17 21:43:05;;;;;;;37.42;15.00;;;;;;;-145.69;100.00;52804.84;5090897;28;20445;-80
2022/12/17 21:45:36;;;;;;;29.93;11.07;;;;;;;-145.69;100.00;52761.25;5089228;28;20202;-80
2022/12/17 21:48:03;;;;;;;27.87;9.83;;;;;;;-145.69;100.00;52812.75;5081993;28;20205;-79
2022/12/17 21:50:33;;;;;;;26.83;9.47;;;;;;;-145.69;100.00;52773.16;5090369;28;20271;-79
2022/12/17 21:52:59;;;;;;;31.67;9.80;;;;;;;-145.69;100.00;52816.72;5090027;28;20312;-80
2022/12/17 21:55:27;;;;;;;33.93;14.17;;;;;;;-145.69;100.00;52789.00;5087256;28;20704;-79
2022/12/17 21:57:55;;;;;;;27.77;11.33;;;;;;;-145.69;100.00;52844.44;5088396;28;20194;-80
2022/12/17 22:00:21;;;;;;;31.37;11.80;;;;;;;-145.69;100.00;52777.09;5092051;28;20312;-80
2022/12/17 22:02:48;;;;;;;26.40;10.33;;;;;;;-145.69;100.00;52814.75;5090392;28;20255;-79
2022/12/17 22:05:15;;;;;;;26.77;9.50;;;;;;;-145.69;100.00;52808.78;5084658;28;20212;-80
2022/12/17 22:07:41;;;;;;;31.87;10.60;;;;;;;-145.69;100.00;52794.94;5078797;28;20561;-81
2022/12/17 22:10:09;;;;;;;27.33;10.83;;;;;;;-145.69;100.00;52785.03;5088324;28;20201;-80
2022/12/17 22:15:21;;;;;;;30.10;11.23;;;;;;;-145.69;100.00;52804.84;5076036;28;20201;-79
2022/12/17 22:17:50;;;;;;;29.87;11.53;;;;;;;-145.69;100.00;52822.66;5089548;28;20198;-78
2022/12/17 22:20:17;;;;;;;47.38;18.48;;;;;;;-145.69;100.00;52792.94;5087981;28;20484;-78
2022/12/17 22:22:45;;;;;;;43.23;14.83;;;;;;;-145.69;100.00;52775.13;5092870;28;20205;-78
2022/12/17 22:25:12;;;;;;;40.20;13.10;;;;;;;-145.69;100.00;52787.00;5078507;28;20230;-78
2022/12/17 22:27:39;;;;;;;29.53;12.13;;;;;;;-145.69;100.00;52828.59;5092808;28;20202;-78
2022/12/17 22:32:59;;;;;;;35.30;12.57;;;;;;;-145.69;100.00;52806.81;5092658;28;20232;-78
2022/12/17 22:35:28;;;;;;;46.03;15.47;;;;;;;-145.69;100.00;52810.78;5092316;28;20718;-78
2022/12/17 22:37:55;;;;;;;40.53;13.27;;;;;;;-145.69;100.00;52822.66;5092773;28;20274;-78
2022/12/17 22:40:24;;;;;;;39.50;14.50;;;;;;;-145.69;100.00;52810.78;5091658;28;20210;-79
2022/12/17 22:45:41;;;;;;;40.80;14.00;;;;;;;-145.69;100.00;52802.84;5076141;28;20194;-77
2022/12/17 22:48:11;;;;;;;39.30;14.43;;;;;;;-145.69;100.00;52773.16;5090158;28;20688;-78
2022/12/17 22:50:38;;;;;;;45.80;16.37;;;;;;;-145.69;100.00;52836.53;5088870;28;20296;-78
2022/12/17 22:53:05;;;;;;;47.73;16.07;;;;;;;-145.69;100.00;52798.91;5072150;28;20701;-78
2022/12/17 22:55:32;;;;;;;37.50;13.80;;;;;;;-145.69;100.00;52804.84;5072363;28;20289;-78
2022/12/17 22:57:58;;;;;;;33.53;12.40;;;;;;;-145.69;100.00;52818.69;5073015;28;20195;-78
2022/12/17 23:00:28;;;;;;;38.90;12.87;;;;;;;-145.69;100.00;52790.97;5081441;28;20543;-77
2022/12/17 23:02:55;;;;;;;37.07;12.33;;;;;;;-145.69;100.00;52812.75;5088858;28;20198;-78
2022/12/17 23:05:25;;;;;;;45.03;13.67;;;;;;;-145.69;100.00;52824.63;5091837;28;20213;-78
2022/12/17 23:07:52;;;;;;;41.97;13.63;;;;;;;-145.69;100.00;52802.84;5092506;28;20629;-77
2022/12/17 23:10:19;;;;;;;43.37;15.27;;;;;;;-145.69;100.00;52818.69;5082686;28;20229;-78
2022/12/17 23:12:53;;;;;;;39.80;12.80;;;;;;;-145.69;100.00;52828.59;5090746;28;20230;-77
2022/12/17 23:15:33;;;;;;;38.00;12.53;;;;;;;-145.69;100.00;52832.56;5093667;28;20300;-78
2022/12/17 23:18:03;;;;;;;40.10;13.07;;;;;;;-145.69;100.00;52814.75;5094925;28;20217;-78
2022/12/17 23:20:33;;;;;;;40.10;11.97;;;;;;;-145.69;100.00;52808.78;5094411;28;20190;-78
2022/12/17 23:23:00;;;;;;;44.90;13.73;;;;;;;-145.69;100.00;52832.56;5085753;28;20202;-78
2022/12/17 23:25:28;;;;;;;37.40;12.97;;;;;;;-145.69;100.00;52802.84;5093651;28;20282;-77
2022/12/17 23:27:55;;;;;;;34.07;12.80;;;;;;;-145.69;100.00;52810.78;5095705;28;20198;-78
2022/12/17 23:30:21;;;;;;;29.13;11.30;;;;;;;-145.69;100.00;52802.84;5094637;28;20237;-77
2022/12/17 23:32:48;;;;;;;37.93;12.27;;;;;;;-145.69;100.00;52773.16;5094696;28;20322;-78
2022/12/17 23:35:15;;;;;;;34.80;11.97;;;;;;;-145.69;100.00;52792.94;5094768;28;20236;-78
2022/12/17 23:37:43;;;;;;;31.27;12.17;;;;;;;-145.69;100.00;52804.84;5095441;28;20270;-78
2022/12/17 23:40:13;;;;;;;32.73;11.60;;;;;;;-145.69;100.00;52838.50;5094690;28;20198;-78
2022/12/17 23:42:40;;;;;;;30.70;11.40;;;;;;;-145.69;100.00;52820.69;5094202;28;20553;-78
2022/12/17 23:45:09;;;;;;;38.90;11.33;;;;;;;-145.69;100.00;52800.88;5094731;28;20736;-78
2022/12/17 23:47:36;;;;;;;31.23;10.53;;;;;;;-145.69;100.00;52806.81;5082431;28;20198;-77
2022/12/17 23:50:03;;;;;;;31.90;11.47;;;;;;;-145.69;100.00;52834.53;5092856;28;20202;-77
2022/12/17 23:52:32;;;;;;;39.27;11.43;;;;;;;-145.69;100.00;52789.00;5094595;28;20326;-78
2022/12/17 23:55:00;;;;;;;32.43;12.47;;;;;;;-145.69;100.00;52790.97;5076549;28;20199;-78
2022/12/17 23:57:27;;;;;;;27.87;10.03;;;;;;;-145.69;100.00;52808.78;5075004;28;20199;-78
2022/12/17 23:59:53;;;;;;;35.73;13.07;;;;;;;-145.69;100.00;52804.84;5075157;28;20214;-78
